• Join FlightAware (Why Join?)
  • Login
  • US Flag 
02:07AM EST


 

Airport Tracker/Info


-or-


 

Live Flight TrackerFlight Track Log ✈ N214TP ✈ 11-Jul-2013 ✈ KSBP - KPAO

Flight Track Log - Related Links

Times and Time Zones

All times are in EDT time to prevent confusion due to time zone crossing. See the N214TP flight status page for this flight to view local times or setup timezone preferences in your user account.

Time Position Orientation Groundspeed Altitude Reporting Facility
EDT Latitude Longitude Course Direction KTS MPH feet Rate Location/Type
04:14PM 35.2525 -120.6653 333° Northwest 156 180 1,000  Level Los Angeles Center
04:16PM 35.3069 -120.6994 333° Northwest 185 213 3,200 1,860 Climbing Los Angeles Center
04:17PM 35.3553 -120.7328 331° Northwest 180 207 5,400 1,800 Climbing Los Angeles Center
04:18PM 35.3931 -120.7533 336° Northwest 174 200 7,000 1,680 Climbing Los Angeles Center
04:19PM 35.4531 -120.7475 North 179 206 9,000 1,560 Climbing Los Angeles Center
04:20PM 35.5069 -120.7419 North 185 213 10,300 720 Climbing Los Angeles Center
04:21PM 35.5733 -120.7547 351° North 224 258 10,500 60 Climbing Los Angeles Center
04:22PM 35.6425 -120.7856 340° North 249 287 10,500  Level Oakland Center
04:23PM 35.7078 -120.8289 332° Northwest 260 299 10,500 -60 Level Oakland Center
04:24PM 35.7694 -120.8747 329° Northwest 261 300 10,400 240 Descending Oakland Center
04:25PM 35.8314 -120.9194 330° Northwest 258 297 11,000 180 Climbing Oakland Center
04:26PM 35.8944 -120.9647 330° Northwest 261 300 10,800 -300 Descending Oakland Center
04:27PM 35.9611 -121.0111 331° Northwest 270 311 10,500 -120 Descending Oakland Center
04:28PM 36.0236 -121.0567 329° Northwest 266 306 10,600  Climbing Oakland Center
04:29PM 36.0969 -121.1106 329° Northwest 258 297 10,600  Level Oakland Center
04:30PM 36.1592 -121.1547 330° Northwest 257 296 10,600  Level Oakland Center
04:31PM 36.2189 -121.1994 329° Northwest 254 292 10,600  Level Oakland Center
04:32PM 36.2806 -121.2417 331° Northwest 254 292 10,600  Level Oakland Center
04:33PM 36.3400 -121.2878 328° Northwest 251 289 10,600  Level Oakland Center
04:34PM 36.4008 -121.3306 330° Northwest 253 291 10,600  Level Oakland Center
04:35PM 36.4617 -121.3731 331° Northwest 252 290 10,600  Level Oakland Center
04:36PM 36.5211 -121.4200 328° Northwest 253 291 10,600 -60 Level Oakland Center
04:37PM 36.5942 -121.4725 330° Northwest 253 291 10,500 -60 Descending Oakland Center
04:38PM 36.6544 -121.5158 330° Northwest 253 291 10,500  Level Oakland Center
04:39PM 36.7153 -121.5592 330° Northwest 253 291 10,500  Level Oakland Center
04:40PM 36.7758 -121.6033 330° Northwest 253 291 10,500  Level Oakland Center
04:41PM 36.8167 -121.6333 330° Northwest 253 291 10,500 -180 Level Northern Cal TRACON
04:42PM 36.8833 -121.6833 329° Northwest 253 291 10,200 -720 Descending Northern Cal TRACON
04:43PM 36.9500 -121.7333 329° Northwest 256 295 9,000 -1,080 Descending Northern Cal TRACON
04:44PM 37.0167 -121.7833 329° Northwest 251 289 8,000 -960 Descending Northern Cal TRACON
04:45PM 37.0667 -121.8167 332° Northwest 250 288 7,200 -1,020 Descending Northern Cal TRACON
04:46PM 37.1333 -121.8667 329° Northwest 249 287 6,000 -1,080 Descending Northern Cal TRACON
04:47PM 37.1833 -121.9167 321° Northwest 242 278 5,000 -960 Descending Northern Cal TRACON
04:48PM 37.2333 -121.9500 332° Northwest 222 255 4,200 -900 Descending Northern Cal TRACON
04:49PM 37.2519 -121.9567 344° North 229 264 3,800 -780 Descending Oakland Center
04:50PM 37.2947 -121.9908 328° Northwest 205 236 3,100 -840 Descending Oakland Center
04:51PM 37.3414 -122.0208 333° Northwest 175 201 2,200 -840 Descending Oakland Center
04:52PM 37.3794 -122.0431 335° Northwest 160 184 1,500 -540 Descending Oakland Center
04:53PM 37.4136 -122.0661 332° Northwest 151 174 1,100 -540 Descending Oakland Center
04:54PM 37.4375 -122.0919 319° Northwest 131 151 500 -600 Descending Oakland Center
04:57PM 37.4500 -122.1000 329° Northwest  Level FlightAware Approximate